ENFL/FRO METAR and TAF weather

Enter ICAO airport designator
Station Type Date Time Source
ENFL METAR 2020/09/22 05:20 UTC NOAA

ENFL 220520Z 22021KT 6000 -RADZ FEW004 BKN006 12/12 Q1003


Station Type Date Time Source
ENFL Decoded METAR 2020/09/22 05:20 UTC NOAA

Floro, Norway (ENFL) 61-35N 005-02E 9M
Sep 22, 2020 - 01:20 AM EDT / 2020.09.22 0520 UTC
Wind: from the SW (220 degrees) at 24 MPH (21 KT):0
Visibility: 3 mile(s):0
Sky conditions: mostly cloudy
Weather: light rain, drizzle
Temperature: 53 F (12 C)
Dew Point: 53 F (12 C)
Relative Humidity: 100%
Pressure (altimeter): 29.62 in. Hg (1003 hPa)
ob: ENFL 220520Z 22021KT 6000 -RADZ FEW004 BKN006 12/12 Q1003
cycle: 5

Station Type Date Time Source
ENFL TAF 2010/02/05 07:50 UTC NOAA

METAR ENFL 050750Z 16019KT 140V200 9999 FEW015 SCT030 BKN055 03/M03 Q1011

Example: see airport list